Time;durP1;ratioP1;P1;durP2;ratioP2;P2;SDS_P1;SDS_P2;PMS_P1;PMS_P2;Temp;Humidity;BMP_temperature;BMP_pressure;BME280_temperature;BME280_humidity;BME280_pressure;Samples;Min_cycle;Max_cycle;Signal;HPM_P1;HPM_P2
2021/01/06 00:02:11;;;;;;;33.33;15.25;;;1.90;99.90;;;;;;4974447;28;20118;-89
2021/01/06 00:04:37;;;;;;;30.25;16.85;;;2.00;99.90;;;;;;4974471;28;20082;-89
2021/01/06 00:07:03;;;;;;;38.75;16.25;;;2.10;99.90;;;;;;4974121;28;20057;-89
2021/01/06 00:09:29;;;;;;;30.92;16.15;;;2.00;99.90;;;;;;4975312;28;20463;-89
2021/01/06 00:11:54;;;;;;;33.75;16.00;;;2.00;99.90;;;;;;4973920;28;20058;-89
2021/01/06 00:14:20;;;;;;;32.88;16.30;;;2.00;99.90;;;;;;4974252;28;20054;-89
2021/01/06 00:16:52;;;;;;;26.75;15.85;;;1.90;99.90;;;;;;4974254;28;20050;-89
2021/01/06 00:19:18;;;;;;;28.15;16.88;;;1.90;99.90;;;;;;4975322;28;20023;-89
2021/01/06 00:21:43;;;;;;;29.75;17.63;;;1.80;99.90;;;;;;4973878;28;20371;-89
2021/01/06 00:24:09;;;;;;;25.80;15.15;;;1.80;99.90;;;;;;4974096;28;20061;-89
2021/01/06 00:26:36;;;;;;;32.65;18.30;;;1.90;99.90;;;;;;4973283;28;20034;-89
2021/01/06 00:29:06;;;;;;;30.73;17.67;;;1.90;99.90;;;;;;4974599;28;20033;-89
2021/01/06 00:31:39;;;;;;;27.60;18.50;;;1.90;99.90;;;;;;4974919;28;20026;-89
2021/01/06 00:34:06;;;;;;;31.08;17.77;;;1.90;99.90;;;;;;4973753;28;20406;-89
2021/01/06 00:36:31;;;;;;;33.13;17.23;;;1.90;99.90;;;;;;4973604;28;20050;-89
2021/01/06 00:38:57;;;;;;;33.25;18.02;;;1.90;99.90;;;;;;4975222;28;20085;-89
2021/01/06 00:41:30;;;;;;;26.52;16.20;;;1.90;99.90;;;;;;4973645;28;20395;-89
2021/01/06 00:43:57;;;;;;;29.65;16.88;;;1.90;99.90;;;;;;4973767;28;20026;-89
2021/01/06 00:46:28;;;;;;;31.20;16.95;;;2.00;99.90;;;;;;4974825;28;20034;-89
2021/01/06 00:48:53;;;;;;;30.90;17.15;;;2.00;99.90;;;;;;4973641;28;20030;-89
2021/01/06 00:51:19;;;;;;;26.98;16.40;;;2.00;99.90;;;;;;4973474;28;20077;-89
2021/01/06 00:53:45;;;;;;;31.23;17.80;;;1.90;99.90;;;;;;4975042;28;20133;-89
2021/01/06 00:56:10;;;;;;;26.52;15.52;;;1.80;99.90;;;;;;4973602;28;20027;-89
2021/01/06 00:58:36;;;;;;;25.42;15.57;;;1.80;99.90;;;;;;4973581;28;20023;-89
2021/01/06 01:01:02;;;;;;;27.67;16.17;;;1.90;99.90;;;;;;4973499;28;20435;-89
2021/01/06 01:03:28;;;;;;;27.77;16.05;;;1.90;99.90;;;;;;4973362;28;20027;-89
2021/01/06 01:05:53;;;;;;;26.38;15.68;;;1.90;99.90;;;;;;4989577;28;20418;-89
2021/01/06 01:08:19;;;;;;;24.92;15.38;;;1.90;99.90;;;;;;4973387;28;20026;-89
2021/01/06 01:10:52;;;;;;;26.95;15.48;;;2.00;99.90;;;;;;4973277;28;20031;-89
2021/01/06 01:13:23;;;;;;;27.55;15.40;;;2.00;99.90;;;;;;4974715;28;20026;-89
2021/01/06 01:15:52;;;;;;;25.52;15.75;;;2.00;99.90;;;;;;4973376;28;20023;-89
2021/01/06 01:18:21;;;;;;;24.42;15.20;;;2.00;99.90;;;;;;4973425;28;20034;-89
2021/01/06 01:20:49;;;;;;;26.52;16.52;;;2.00;99.90;;;;;;4973363;28;20571;-89
2021/01/06 01:23:18;;;;;;;25.83;14.95;;;2.10;99.90;;;;;;4973383;28;20034;-89
2021/01/06 01:25:44;;;;;;;29.40;16.23;;;2.10;99.90;;;;;;4974580;28;20035;-89
2021/01/06 01:28:15;;;;;;;25.55;14.38;;;2.00;99.90;;;;;;4973120;28;20026;-89
2021/01/06 01:30:41;;;;;;;29.80;14.77;;;2.00;99.90;;;;;;4973168;28;20495;-89
2021/01/06 01:33:07;;;;;;;25.00;14.60;;;2.00;99.90;;;;;;4973142;28;20026;-89
2021/01/06 01:35:33;;;;;;;22.88;14.23;;;2.00;99.90;;;;;;4973014;28;20085;-89
2021/01/06 01:38:01;;;;;;;22.83;14.27;;;1.90;99.90;;;;;;4974776;28;20053;-88
2021/01/06 01:40:34;;;;;;;24.98;15.23;;;2.00;99.90;;;;;;4976737;28;20023;-88
2021/01/06 01:43:14;;;;;;;30.70;16.08;;;2.00;99.90;;;;;;4976494;28;20042;-89
2021/01/06 01:45:46;;;;;;;25.45;14.77;;;1.90;99.90;;;;;;4977528;28;20037;-89
2021/01/06 01:48:25;;;;;;;23.63;14.70;;;1.90;99.90;;;;;;4992619;28;20027;-89
2021/01/06 01:50:53;;;;;;;27.10;15.65;;;1.90;99.90;;;;;;4992618;28;20073;-89
2021/01/06 01:53:29;;;;;;;22.00;13.93;;;1.80;99.90;;;;;;4976479;28;20050;-89
2021/01/06 01:55:56;;;;;;;23.90;13.93;;;1.90;99.90;;;;;;4976374;28;20320;-89
2021/01/06 01:58:26;;;;;;;23.50;14.60;;;1.90;99.90;;;;;;4977819;28;20077;-89
2021/01/06 02:00:55;;;;;;;24.60;15.02;;;1.90;99.90;;;;;;4976292;28;20062;-89
2021/01/06 02:03:28;;;;;;;21.38;14.30;;;1.90;99.90;;;;;;4976173;28;20042;-89
2021/01/06 02:06:32;;;;;;;21.17;13.70;;;1.90;99.90;;;;;;4977595;28;20467;-89
2021/01/06 02:09:04;;;;;;;22.35;13.70;;;1.90;99.90;;;;;;4946747;28;20136;-88
2021/01/06 02:11:40;;;;;;;22.48;13.32;;;1.90;99.90;;;;;;4976236;28;20026;-89
2021/01/06 02:14:10;;;;;;;25.17;14.38;;;1.90;99.90;;;;;;4975927;28;20488;-88
2021/01/06 02:17:04;;;;;;;24.83;13.27;;;1.80;99.90;;;;;;4992240;28;20023;-89
2021/01/06 02:19:34;;;;;;;22.85;13.00;;;1.80;99.90;;;;;;4977495;28;20054;-88
2021/01/06 02:22:00;;;;;;;22.25;13.38;;;1.80;99.90;;;;;;4975898;28;20042;-88
2021/01/06 02:24:26;;;;;;;23.00;13.43;;;1.90;99.90;;;;;;4975733;28;20031;-89
2021/01/06 02:26:52;;;;;;;23.98;13.98;;;1.90;99.90;;;;;;4977189;28;20023;-89
2021/01/06 02:29:18;;;;;;;21.50;13.27;;;1.80;99.90;;;;;;4975737;28;20115;-89
2021/01/06 02:31:44;;;;;;;24.33;13.23;;;1.80;99.90;;;;;;4977146;28;20034;-88
2021/01/06 02:34:11;;;;;;;21.75;12.52;;;1.80;99.90;;;;;;4975897;28;20425;-89
2021/01/06 02:36:37;;;;;;;20.60;13.57;;;1.90;99.90;;;;;;4975517;28;20498;-88
2021/01/06 02:39:09;;;;;;;21.42;13.52;;;1.80;99.90;;;;;;4975826;28;20479;-89
2021/01/06 02:41:35;;;;;;;20.33;12.63;;;1.80;99.90;;;;;;4975776;28;20054;-89
2021/01/06 02:44:03;;;;;;;21.85;13.15;;;1.70;99.90;;;;;;4975713;28;20030;-89
2021/01/06 02:46:29;;;;;;;18.70;12.27;;;1.80;99.90;;;;;;4975828;28;20360;-89
2021/01/06 02:48:55;;;;;;;20.05;11.88;;;1.80;99.90;;;;;;4974923;28;20181;-88
2021/01/06 02:51:48;;;;;;;22.15;13.05;;;1.90;99.90;;;;;;4975609;28;20026;-89
2021/01/06 02:54:27;;;;;;;17.33;11.85;;;1.80;99.90;;;;;;4975799;28;20031;-89
2021/01/06 02:56:57;;;;;;;22.08;12.70;;;1.90;99.90;;;;;;4976366;28;20031;-89
2021/01/06 02:59:30;;;;;;;19.88;12.38;;;2.00;99.90;;;;;;4991922;28;20023;-90
2021/01/06 03:01:57;;;;;;;20.73;11.82;;;2.00;99.90;;;;;;4975467;28;20413;-90
2021/01/06 03:04:26;;;;;;;19.25;12.07;;;1.90;99.90;;;;;;4975550;28;20387;-90
2021/01/06 03:06:56;;;;;;;20.58;12.40;;;1.90;99.90;;;;;;4975402;28;20034;-89
2021/01/06 03:09:30;;;;;;;17.88;12.05;;;1.90;99.90;;;;;;4975361;28;20023;-90
2021/01/06 03:11:57;;;;;;;;;;;1.80;99.90;;;;;;4991911;28;20027;-90
2021/01/06 03:14:25;;;;;;;18.15;11.23;;;1.80;99.90;;;;;;4975315;28;19906;-90
2021/01/06 03:16:51;;;;;;;16.88;11.25;;;1.90;99.90;;;;;;4976529;28;20023;-90
2021/01/06 03:19:18;;;;;;;18.60;11.93;;;1.90;99.90;;;;;;4975327;28;20442;-90
2021/01/06 03:21:46;;;;;;;19.10;12.20;;;1.80;99.90;;;;;;4975361;28;20033;-91
2021/01/06 03:24:15;;;;;;;19.67;11.38;;;1.80;99.90;;;;;;4975201;28;20497;-90
2021/01/06 03:26:42;;;;;;;19.45;11.88;;;1.80;99.90;;;;;;4975709;28;20370;-90
2021/01/06 03:29:09;;;;;;;19.38;11.95;;;1.90;99.90;;;;;;4975379;28;20023;-90
2021/01/06 03:31:39;;;;;;;17.20;10.60;;;1.80;99.90;;;;;;4975436;28;20034;-90
2021/01/06 03:34:18;;;;;;;18.30;11.38;;;1.90;99.90;;;;;;4974928;28;20121;-91
2021/01/06 03:36:49;;;;;;;19.90;12.35;;;1.90;99.90;;;;;;4990962;28;20497;-90
2021/01/06 03:39:25;;;;;;;21.50;12.00;;;1.90;99.90;;;;;;4974922;28;20030;-90
2021/01/06 03:41:52;;;;;;;18.58;11.45;;;1.90;99.90;;;;;;4976086;28;20422;-91
2021/01/06 03:44:18;;;;;;;17.65;11.48;;;1.80;99.90;;;;;;4974793;28;20023;-91
2021/01/06 03:47:13;;;;;;;18.80;11.55;;;1.90;99.90;;;;;;4974900;28;20109;-90
2021/01/06 03:50:11;;;;;;;17.27;11.18;;;1.90;99.90;;;;;;4976073;28;20098;-91
2021/01/06 03:53:03;;;;;;;17.00;10.65;;;1.70;99.90;;;;;;4972821;28;20039;-90
2021/01/06 03:55:44;;;;;;;20.45;11.50;;;1.70;99.90;;;;;;4976016;28;20042;-91
2021/01/06 03:58:34;;;;;;;16.52;10.63;;;1.70;99.90;;;;;;4990707;28;20050;-90
2021/01/06 04:01:32;;;;;;;16.08;10.23;;;1.80;99.90;;;;;;4974333;28;20149;-90
2021/01/06 04:04:13;;;;;;;16.20;10.32;;;1.80;99.90;;;;;;4950159;28;20031;-91
2021/01/06 04:06:42;;;;;;;19.55;11.02;;;1.90;99.90;;;;;;4974726;28;20027;-91
2021/01/06 04:09:23;;;;;;;17.08;10.85;;;1.90;99.90;;;;;;4975591;28;20074;-90
2021/01/06 04:12:01;;;;;;;21.27;11.50;;;1.80;99.90;;;;;;4974527;28;20027;-90
2021/01/06 04:14:27;;;;;;;16.60;10.73;;;1.70;99.90;;;;;;4974564;28;20085;-90
2021/01/06 04:16:52;;;;;;;18.13;10.95;;;1.70;99.90;;;;;;4974305;28;20107;-90
2021/01/06 04:19:18;;;;;;;17.10;10.75;;;1.80;99.90;;;;;;4974438;28;20031;-90
2021/01/06 04:21:44;;;;;;;18.50;10.90;;;1.90;99.90;;;;;;4975635;28;20105;-90
2021/01/06 04:24:12;;;;;;;17.15;11.13;;;1.90;99.90;;;;;;4974201;28;20022;-90
2021/01/06 04:26:39;;;;;;;16.38;10.18;;;1.80;99.90;;;;;;4974350;28;20110;-90
2021/01/06 04:29:05;;;;;;;16.23;10.30;;;1.70;99.90;;;;;;4975336;28;20026;-90
2021/01/06 04:31:31;;;;;;;16.33;10.75;;;1.70;99.90;;;;;;4973958;28;20077;-90
2021/01/06 04:33:57;;;;;;;15.27;9.73;;;1.70;99.90;;;;;;4974005;28;20497;-90
2021/01/06 04:36:29;;;;;;;16.83;10.45;;;1.80;99.90;;;;;;4974010;28;20050;-90
2021/01/06 04:38:58;;;;;;;14.18;10.05;;;1.90;99.90;;;;;;4975022;28;20046;-90
2021/01/06 04:41:30;;;;;;;15.15;10.13;;;1.80;99.90;;;;;;4973842;28;20041;-90
2021/01/06 04:44:12;;;;;;;14.43;10.10;;;1.70;99.90;;;;;;4990193;28;20054;-90
2021/01/06 04:47:14;;;;;;;15.43;10.27;;;1.60;99.90;;;;;;4975218;28;20089;-90
2021/01/06 04:50:19;;;;;;;16.00;9.48;;;1.70;99.90;;;;;;4989985;28;20372;-90
2021/01/06 04:53:07;;;;;;;15.10;9.80;;;1.80;99.90;;;;;;4956954;28;20027;-90
2021/01/06 04:55:51;;;;;;;14.15;9.63;;;1.80;99.90;;;;;;4973716;28;20266;-90
2021/01/06 04:58:44;;;;;;;14.70;9.40;;;1.80;99.90;;;;;;4973769;28;20079;-90
2021/01/06 05:01:34;;;;;;;12.88;8.68;;;1.70;99.90;;;;;;4973798;28;20058;-90
2021/01/06 05:04:30;;;;;;;14.73;9.18;;;1.70;99.90;;;;;;4973728;28;20055;-90
2021/01/06 05:07:02;;;;;;;12.45;8.73;;;1.90;99.90;;;;;;4973682;28;20395;-90
2021/01/06 05:09:46;;;;;;;12.57;8.05;;;1.80;99.90;;;;;;4973686;28;20015;-90
2021/01/06 05:12:42;;;;;;;14.27;8.80;;;1.80;99.90;;;;;;4974346;28;20034;-90
2021/01/06 05:15:11;;;;;;;11.77;8.05;;;1.80;99.90;;;;;;4977518;28;20483;-89
2021/01/06 05:17:42;;;;;;;12.80;8.25;;;1.80;99.90;;;;;;4978799;28;20382;-90
2021/01/06 05:20:09;;;;;;;14.40;9.20;;;1.80;99.90;;;;;;4978676;28;20434;-90
2021/01/06 05:22:35;;;;;;;11.80;8.25;;;1.80;99.90;;;;;;4977440;28;20050;-90
2021/01/06 05:25:03;;;;;;;11.90;9.10;;;1.80;99.90;;;;;;4977613;28;20023;-90
2021/01/06 05:27:36;;;;;;;16.05;9.38;;;1.80;99.90;;;;;;4978898;28;20023;-91
2021/01/06 05:30:19;;;;;;;9.90;6.80;;;1.70;99.90;;;;;;4977690;28;20475;-90
2021/01/06 05:32:45;;;;;;;14.95;9.27;;;1.70;99.90;;;;;;4977700;28;20030;-91
2021/01/06 05:35:16;;;;;;;14.77;9.90;;;1.60;99.90;;;;;;4977030;28;20386;-90
2021/01/06 05:37:52;;;;;;;15.05;9.60;;;1.70;99.90;;;;;;4976917;28;20047;-90
2021/01/06 05:40:18;;;;;;;16.08;9.95;;;1.70;99.90;;;;;;4976856;28;20119;-90
2021/01/06 05:42:51;;;;;;;15.82;11.30;;;1.60;99.90;;;;;;4977236;28;20039;-90
2021/01/06 05:45:20;;;;;;;18.52;10.60;;;1.50;99.90;;;;;;4977033;28;20031;-90
2021/01/06 05:47:51;;;;;;;16.85;11.68;;;1.50;99.90;;;;;;4976912;28;20049;-90
2021/01/06 05:50:28;;;;;;;16.90;10.55;;;1.60;99.90;;;;;;4976815;28;20027;-90
2021/01/06 05:53:05;;;;;;;17.52;11.85;;;1.50;99.90;;;;;;4976912;28;20394;-90
2021/01/06 05:55:35;;;;;;;23.38;11.73;;;1.50;99.90;;;;;;4977180;28;20053;-90
2021/01/06 05:58:23;;;;;;;18.20;11.27;;;1.40;99.90;;;;;;4976955;28;20034;-90
2021/01/06 06:00:59;;;;;;;19.67;11.52;;;1.40;99.90;;;;;;4976716;28;20023;-90
2021/01/06 06:04:18;;;;;;;16.88;11.55;;;1.50;99.90;;;;;;4978104;28;20027;-90
2021/01/06 06:07:12;;;;;;;17.90;10.65;;;1.50;99.90;;;;;;4902599;29;20388;-90
2021/01/06 06:10:03;;;;;;;16.70;10.75;;;1.50;99.90;;;;;;4992981;28;20111;-90
2021/01/06 06:12:59;;;;;;;15.98;10.52;;;1.60;99.90;;;;;;4950912;28;20031;-90
2021/01/06 06:15:52;;;;;;;19.25;11.35;;;1.50;99.90;;;;;;4976549;28;20049;-90
2021/01/06 06:18:18;;;;;;;14.05;9.48;;;1.50;99.90;;;;;;4976497;28;20030;-90
2021/01/06 06:21:06;;;;;;;17.63;11.07;;;1.60;99.90;;;;;;4977886;28;20494;-90
2021/01/06 06:24:02;;;;;;;15.52;9.95;;;1.70;99.90;;;;;;4945895;28;20043;-90
2021/01/06 06:26:39;;;;;;;17.67;10.40;;;1.70;99.90;;;;;;4976376;28;20023;-90
2021/01/06 06:29:14;;;;;;;18.92;11.35;;;1.70;99.90;;;;;;4976879;28;20042;-90
2021/01/06 06:31:48;;;;;;;16.08;10.40;;;1.50;99.90;;;;;;4977329;28;20026;-90
2021/01/06 06:34:14;;;;;;;19.00;10.85;;;1.50;99.90;;;;;;4976250;28;20030;-90
2021/01/06 06:36:47;;;;;;;15.13;10.20;;;1.50;99.90;;;;;;4975866;28;20031;-90
2021/01/06 06:39:39;;;;;;;11.77;7.35;;;1.60;99.90;;;;;;4976331;28;20101;-90
2021/01/06 06:42:31;;;;;;;15.65;9.40;;;1.60;99.90;;;;;;4971109;28;20035;-90
2021/01/06 06:45:01;;;;;;;16.50;9.77;;;1.80;99.90;;;;;;4976114;28;20027;-90
2021/01/06 06:47:49;;;;;;;16.23;10.50;;;1.90;99.90;;;;;;4977256;28;20015;-90
2021/01/06 06:50:51;;;;;;;11.95;8.30;;;1.70;99.90;;;;;;4991961;28;20387;-89
2021/01/06 06:53:53;;;;;;;13.88;9.15;;;1.70;99.90;;;;;;4975862;28;20031;-90
2021/01/06 06:56:34;;;;;;;16.25;9.63;;;1.80;99.90;;;;;;4977438;28;20031;-90
2021/01/06 06:59:45;;;;;;;13.20;9.10;;;1.80;99.90;;;;;;4975698;28;20067;-90
2021/01/06 07:02:10;;;;;;;18.15;10.85;;;1.70;99.90;;;;;;4970899;28;20038;-90
2021/01/06 07:04:51;;;;;;;13.90;9.18;;;1.70;99.90;;;;;;4977050;28;20023;-90
2021/01/06 07:07:32;;;;;;;13.60;8.77;;;1.70;99.90;;;;;;4976855;28;20158;-89
2021/01/06 07:09:59;;;;;;;13.70;8.68;;;1.80;99.90;;;;;;4976614;28;20030;-89
2021/01/06 07:12:25;;;;;;;11.93;8.75;;;1.90;99.90;;;;;;4975634;28;20037;-90
2021/01/06 07:14:57;;;;;;;13.73;8.82;;;1.70;99.90;;;;;;4975551;28;20394;-90
2021/01/06 07:17:39;;;;;;;15.45;9.45;;;1.80;99.90;;;;;;4976797;28;20019;-90
2021/01/06 07:20:09;;;;;;;12.98;8.57;;;1.70;99.90;;;;;;4975594;28;20501;-90
2021/01/06 07:22:41;;;;;;;12.70;8.98;;;1.60;99.90;;;;;;4975183;28;20086;-90
2021/01/06 07:25:21;;;;;;;15.07;9.27;;;1.60;99.90;;;;;;4975199;28;20022;-90
2021/01/06 07:27:56;;;;;;;14.70;9.13;;;1.70;99.90;;;;;;4975222;28;20033;-90
2021/01/06 07:30:37;;;;;;;12.10;8.55;;;1.60;99.90;;;;;;4976400;28;20379;-90
2021/01/06 07:33:34;;;;;;;15.38;9.63;;;1.60;99.90;;;;;;4975045;28;20546;-90
2021/01/06 07:36:16;;;;;;;14.63;8.98;;;1.60;99.90;;;;;;4974530;28;20066;-90
2021/01/06 07:38:44;;;;;;;15.30;10.65;;;1.60;99.90;;;;;;4975877;28;20043;-89
2021/01/06 07:41:11;;;;;;;16.10;10.38;;;1.60;99.90;;;;;;4975050;28;20027;-90
2021/01/06 07:43:44;;;;;;;16.42;10.63;;;1.50;99.90;;;;;;4975706;28;20027;-90
2021/01/06 07:46:18;;;;;;;21.00;10.70;;;1.70;99.90;;;;;;4974656;28;20072;-90
2021/01/06 07:48:43;;;;;;;15.68;9.95;;;1.70;99.90;;;;;;4974624;28;20062;-90
2021/01/06 07:51:27;;;;;;;15.18;10.25;;;1.60;99.90;;;;;;4975798;28;20105;-90
2021/01/06 07:54:01;;;;;;;13.25;8.10;;;1.60;99.90;;;;;;4974745;28;20537;-91
2021/01/06 07:57:04;;;;;;;17.23;11.15;;;1.50;99.90;;;;;;4974636;28;20027;-91
2021/01/06 07:59:43;;;;;;;18.15;11.73;;;1.50;99.90;;;;;;4974583;28;20027;-90
2021/01/06 08:02:18;;;;;;;17.63;11.70;;;1.40;99.90;;;;;;4974569;28;20027;-90
2021/01/06 08:05:00;;;;;;;16.98;11.30;;;1.50;99.90;;;;;;4975674;28;20046;-90
2021/01/06 08:07:27;;;;;;;17.27;10.95;;;1.40;99.90;;;;;;4975625;28;20033;-90
2021/01/06 08:09:53;;;;;;;17.17;11.23;;;1.50;99.90;;;;;;4974868;28;20096;-90
2021/01/06 08:12:41;;;;;;;17.10;10.48;;;1.50;99.90;;;;;;4974833;28;20391;-90
2021/01/06 08:15:19;;;;;;;18.55;10.55;;;1.50;99.90;;;;;;4975001;28;20033;-90
2021/01/06 08:18:16;;;;;;;22.15;13.55;;;1.50;99.90;;;;;;4990708;28;20023;-89
2021/01/06 08:20:51;;;;;;;16.15;10.23;;;1.60;99.90;;;;;;4990154;28;20027;-89
2021/01/06 08:23:17;;;;;;;15.70;10.25;;;1.70;99.90;;;;;;4990113;28;20066;-90
2021/01/06 08:25:58;;;;;;;14.80;9.30;;;1.80;99.90;;;;;;4990536;28;20133;-90
2021/01/06 08:28:28;;;;;;;13.60;9.30;;;2.00;99.90;;;;;;4974339;28;20026;-90
2021/01/06 08:31:09;;;;;;;17.70;10.32;;;2.00;99.90;;;;;;4975284;28;20030;-90
2021/01/06 08:33:53;;;;;;;18.30;10.32;;;1.90;99.90;;;;;;4974136;28;20030;-90
2021/01/06 08:36:28;;;;;;;16.55;10.43;;;1.90;99.90;;;;;;4973958;28;20031;-89
2021/01/06 08:39:06;;;;;;;15.45;10.02;;;1.70;99.90;;;;;;4973831;28;20101;-90
2021/01/06 08:41:32;;;;;;;14.77;9.55;;;1.80;99.90;;;;;;4989943;28;20521;-89
2021/01/06 08:44:00;;;;;;;14.90;10.07;;;1.90;99.90;;;;;;4973766;28;20023;-89
2021/01/06 08:46:30;;;;;;;15.27;10.38;;;2.00;99.90;;;;;;4973366;28;20078;-89
2021/01/06 08:49:20;;;;;;;18.30;10.00;;;2.00;99.90;;;;;;4974537;28;20027;-88
2021/01/06 08:51:46;;;;;;;12.15;8.88;;;1.90;99.90;;;;;;4989589;28;20414;-88
2021/01/06 08:54:29;;;;;;;18.05;11.55;;;2.00;99.90;;;;;;4973397;28;20034;-88
2021/01/06 08:57:38;;;;;;;15.38;9.32;;;2.10;99.90;;;;;;4973374;28;20027;-88
2021/01/06 09:00:31;;;;;;;15.82;10.90;;;2.10;99.90;;;;;;4973410;28;20483;-88
2021/01/06 09:03:34;;;;;;;11.77;8.77;;;2.20;99.90;;;;;;4974520;28;20030;-88
2021/01/06 09:06:14;;;;;;;12.73;9.32;;;2.20;99.90;;;;;;4973347;28;20069;-88
2021/01/06 09:08:44;;;;;;;13.30;8.85;;;2.10;99.90;;;;;;4974917;28;20090;-88
2021/01/06 09:11:28;;;;;;;12.30;8.80;;;2.10;99.90;;;;;;4973381;28;20034;-88
2021/01/06 09:14:27;;;;;;;19.05;10.25;;;2.10;99.90;;;;;;4973218;28;20027;-88
2021/01/06 09:17:16;;;;;;;12.82;8.95;;;2.00;99.90;;;;;;4989416;28;20493;-88
2021/01/06 09:19:59;;;;;;;15.73;10.15;;;2.10;99.90;;;;;;4973762;28;20081;-88
2021/01/06 09:22:25;;;;;;;16.33;10.75;;;2.10;99.90;;;;;;4973069;28;20027;-88
2021/01/06 09:24:54;;;;;;;12.85;8.73;;;2.20;99.90;;;;;;4973012;28;20023;-87
2021/01/06 09:27:42;;;;;;;10.60;8.18;;;2.20;99.90;;;;;;4973062;28;20540;-88
2021/01/06 09:30:30;;;;;;;12.65;8.35;;;2.10;99.90;;;;;;4974364;28;20029;-88
2021/01/06 09:32:58;;;;;;;11.57;7.88;;;2.00;99.90;;;;;;4973282;28;20113;-88
2021/01/06 09:35:29;;;;;;;11.18;7.03;;;2.10;99.90;;;;;;4972993;28;20027;-87
2021/01/06 09:38:05;;;;;;;12.18;8.27;;;2.00;99.90;;;;;;4972916;28;20051;-88
2021/01/06 09:40:33;;;;;;;10.57;7.05;;;1.90;99.90;;;;;;4973873;28;20090;-88
2021/01/06 09:43:37;;;;;;;12.75;8.27;;;2.00;99.90;;;;;;4972930;28;20035;-91
2021/01/06 09:46:13;;;;;;;10.50;7.38;;;2.00;99.90;;;;;;4973222;28;20019;-88
2021/01/06 09:48:47;;;;;;;9.20;7.28;;;2.00;99.90;;;;;;4973084;28;20022;-89
2021/01/06 09:51:15;;;;;;;13.02;9.07;;;2.10;99.90;;;;;;4973000;28;20431;-89
2021/01/06 09:53:42;;;;;;;8.98;7.03;;;2.00;99.90;;;;;;4974080;28;20019;-89
2021/01/06 09:56:14;;;;;;;10.90;7.07;;;2.00;99.90;;;;;;4972897;28;20049;-89
2021/01/06 09:58:56;;;;;;;9.50;7.28;;;2.10;99.90;;;;;;4974532;28;20078;-88
2021/01/06 10:01:41;;;;;;;11.05;7.55;;;2.00;99.90;;;;;;4976972;28;20078;-88
2021/01/06 10:04:16;;;;;;;8.38;6.47;;;2.00;99.90;;;;;;4976448;28;20023;-88
2021/01/06 10:07:00;;;;;;;8.13;6.65;;;2.00;99.90;;;;;;4976380;28;20113;-88
2021/01/06 10:09:28;;;;;;;10.45;7.15;;;2.00;99.90;;;;;;4976336;28;20030;-89
2021/01/06 10:12:00;;;;;;;11.10;7.47;;;2.10;99.90;;;;;;4976073;28;20027;-88
2021/01/06 10:14:49;;;;;;;9.75;7.45;;;2.10;99.90;;;;;;4976563;28;20371;-88
2021/01/06 10:17:30;;;;;;;20.50;11.60;;;2.10;99.90;;;;;;4976248;28;20109;-89
2021/01/06 10:20:12;;;;;;;12.68;8.30;;;2.20;99.90;;;;;;4976049;28;20062;-88
2021/01/06 10:22:51;;;;;;;20.60;11.65;;;2.30;99.90;;;;;;4975990;28;20043;-88
2021/01/06 10:25:26;;;;;;;9.82;7.18;;;2.40;99.90;;;;;;4975847;28;20494;-88
2021/01/06 10:28:15;;;;;;;8.73;6.55;;;2.30;99.90;;;;;;4976194;28;20027;-88
2021/01/06 10:30:58;;;;;;;14.93;8.43;;;2.30;99.90;;;;;;4976998;28;20018;-87
2021/01/06 10:33:24;;;;;;;15.82;9.27;;;2.30;99.90;;;;;;4975773;28;20388;-88
2021/01/06 10:36:34;;;;;;;16.35;9.95;;;2.30;99.90;;;;;;4975579;28;20081;-87
2021/01/06 10:39:00;;;;;;;11.73;7.63;;;2.30;99.90;;;;;;4882892;29;20125;-87
2021/01/06 10:41:32;;;;;;;28.27;15.82;;;2.40;99.90;;;;;;4961027;28;20039;-87
2021/01/06 10:44:25;;;;;;;27.15;14.82;;;2.30;99.90;;;;;;4975475;28;20105;-88
2021/01/06 10:46:52;;;;;;;11.02;7.60;;;2.40;99.90;;;;;;4967619;28;20034;-88
2021/01/06 10:49:18;;;;;;;22.77;11.07;;;2.40;99.90;;;;;;4975532;28;20029;-88
2021/01/06 10:51:59;;;;;;;10.88;7.75;;;2.30;99.90;;;;;;4991646;28;20331;-88
2021/01/06 10:54:38;;;;;;;44.42;18.98;;;2.40;99.90;;;;;;4975362;28;20054;-87
2021/01/06 10:57:19;;;;;;;22.83;11.82;;;2.40;99.90;;;;;;4975316;28;20031;-88
2021/01/06 11:00:15;;;;;;;15.05;8.77;;;2.40;99.90;;;;;;4991380;28;20058;-86
2021/01/06 11:02:59;;;;;;;16.73;9.70;;;2.30;99.90;;;;;;4976326;28;20041;-86
2021/01/06 11:05:46;;;;;;;20.35;11.05;;;2.40;99.90;;;;;;4975110;28;20118;-87
2021/01/06 11:08:53;;;;;;;13.25;9.30;;;2.50;99.90;;;;;;4991192;28;20471;-86
2021/01/06 11:11:43;;;;;;;13.93;8.40;;;2.40;99.90;;;;;;4942476;28;20065;-87
2021/01/06 11:14:46;;;;;;;12.00;7.78;;;2.40;99.90;;;;;;4975188;28;20157;-87
2021/01/06 11:17:18;;;;;;;10.82;7.50;;;2.30;99.90;;;;;;4974742;28;20030;-87
2021/01/06 11:20:00;;;;;;;10.70;6.90;;;2.40;99.90;;;;;;4974648;28;20033;-87
2021/01/06 11:22:44;;;;;;;10.88;7.97;;;2.40;99.90;;;;;;4975894;28;20034;-86
2021/01/06 11:25:35;;;;;;;9.40;6.97;;;2.40;99.90;;;;;;4974636;28;20122;-87
2021/01/06 11:28:04;;;;;;;7.93;6.53;;;2.40;99.90;;;;;;4974559;28;20053;-87
2021/01/06 11:30:39;;;;;;;10.82;6.63;;;2.40;99.90;;;;;;4974425;28;20022;-85
2021/01/06 11:33:14;;;;;;;13.95;8.35;;;2.40;99.90;;;;;;4974511;28;20442;-86
2021/01/06 11:35:57;;;;;;;10.52;7.60;;;2.40;99.90;;;;;;4974346;28;20037;-85
2021/01/06 11:38:41;;;;;;;16.48;11.18;;;2.20;99.90;;;;;;4974382;28;20042;-85
2021/01/06 11:41:42;;;;;;;10.25;6.88;;;2.30;99.90;;;;;;4990415;28;20059;-85
2021/01/06 11:44:35;;;;;;;8.88;6.15;;;2.40;99.90;;;;;;4975319;28;20054;-86
2021/01/06 11:47:27;;;;;;;20.10;11.50;;;2.40;99.90;;;;;;4974194;28;20491;-85
2021/01/06 11:50:25;;;;;;;9.02;6.78;;;2.30;99.90;;;;;;4990286;28;20066;-85
2021/01/06 11:53:25;;;;;;;8.93;7.07;;;2.40;99.90;;;;;;4974064;28;20533;-84
2021/01/06 11:56:03;;;;;;;8.60;6.85;;;2.20;99.90;;;;;;4974089;28;20065;-85
2021/01/06 11:58:37;;;;;;;8.80;6.43;;;2.40;99.90;;;;;;4973939;28;20049;-84
2021/01/06 12:01:09;;;;;;;14.30;7.15;;;2.40;99.90;;;;;;4973996;28;20053;-86
2021/01/06 12:03:57;;;;;;;8.48;6.65;;;2.30;99.90;;;;;;4973931;28;20446;-85
2021/01/06 12:06:49;;;;;;;9.90;8.15;;;2.40;99.90;;;;;;4881172;29;20033;-84
2021/01/06 12:09:36;;;;;;;9.05;7.05;;;2.20;99.90;;;;;;4973861;28;20019;-85
2021/01/06 12:12:11;;;;;;;8.70;6.35;;;2.30;99.90;;;;;;4973807;28;20180;-84
2021/01/06 12:14:52;;;;;;;9.65;6.95;;;2.20;99.90;;;;;;4974287;28;20027;-84
2021/01/06 12:17:31;;;;;;;12.00;6.97;;;2.40;99.90;;;;;;4973661;28;20080;-85
2021/01/06 12:20:20;;;;;;;9.75;6.65;;;2.40;99.90;;;;;;4973641;28;20034;-85
2021/01/06 12:23:15;;;;;;;8.52;6.38;;;2.30;99.90;;;;;;4972545;28;20035;-85
2021/01/06 12:25:49;;;;;;;10.45;6.35;;;2.30;99.90;;;;;;4973373;28;20031;-85
2021/01/06 12:28:14;;;;;;;9.05;5.82;;;2.40;99.90;;;;;;4974311;28;20030;-85
2021/01/06 12:30:49;;;;;;;7.88;6.47;;;2.40;99.90;;;;;;4973418;28;20026;-85
2021/01/06 12:33:31;;;;;;;8.13;6.10;;;2.50;99.90;;;;;;4973463;28;20058;-84
2021/01/06 12:36:18;;;;;;;8.32;6.70;;;2.40;99.90;;;;;;4973460;28;20129;-84
2021/01/06 12:38:45;;;;;;;7.47;5.97;;;2.30;99.90;;;;;;4973272;28;20046;-85
2021/01/06 12:41:19;;;;;;;8.98;6.60;;;2.30;99.90;;;;;;4973291;28;20114;-85
2021/01/06 12:43:57;;;;;;;8.60;6.40;;;2.20;99.90;;;;;;4973407;28;20046;-84
2021/01/06 12:46:51;;;;;;;8.60;6.80;;;2.30;99.90;;;;;;4973267;28;20113;-85
2021/01/06 12:49:40;;;;;;;10.77;6.33;;;2.30;99.90;;;;;;4973279;28;20038;-85
2021/01/06 12:52:29;;;;;;;7.75;6.30;;;2.40;99.90;;;;;;4973278;28;20039;-84
2021/01/06 12:55:20;;;;;;;10.35;6.47;;;2.20;99.90;;;;;;4973264;28;20027;-84
2021/01/06 12:57:54;;;;;;;9.55;5.68;;;2.20;99.90;;;;;;4930887;28;20435;-83
2021/01/06 13:00:40;;;;;;;9.10;6.82;;;2.30;99.90;;;;;;4973736;28;20044;-83
2021/01/06 13:03:21;;;;;;;8.73;6.70;;;2.30;99.90;;;;;;4973129;28;20057;-84
2021/01/06 13:06:12;;;;;;;8.90;6.78;;;2.30;99.90;;;;;;4973114;28;20390;-84
2021/01/06 13:08:59;;;;;;;8.98;6.07;;;2.30;99.90;;;;;;4960562;28;20391;-84
2021/01/06 13:11:56;;;;;;;8.68;6.32;;;2.30;99.90;;;;;;4973155;28;20025;-84
2021/01/06 13:14:34;;;;;;;8.65;6.72;;;2.40;99.90;;;;;;4973149;28;20390;-84
2021/01/06 13:17:11;;;;;;;8.48;6.28;;;2.40;99.90;;;;;;4973046;28;20390;-84
2021/01/06 13:20:01;;;;;;;8.07;6.10;;;2.30;99.90;;;;;;4973033;28;20033;-83
2021/01/06 13:22:47;;;;;;;6.88;5.70;;;2.20;99.90;;;;;;4972922;28;20114;-84
2021/01/06 13:25:18;;;;;;;7.68;5.97;;;2.30;99.90;;;;;;4972778;28;20036;-84
2021/01/06 13:27:53;;;;;;;11.93;7.65;;;2.40;99.90;;;;;;4972957;28;20536;-83
2021/01/06 13:30:34;;;;;;;7.00;5.88;;;2.30;99.90;;;;;;4972930;28;20026;-84
2021/01/06 13:33:27;;;;;;;8.73;5.93;;;2.30;99.90;;;;;;4973266;28;20553;-83
2021/01/06 13:35:59;;;;;;;7.50;5.85;;;2.30;99.90;;;;;;4976760;28;20383;-84